Montreal-Nord, Canada
Current Conditions -  °F | °C
As of 2:00 PM on Friday 24 Oct 2014 (Local Time) from CYUL Reporting Station
Broken Clouds Broken Clouds  
Wind Chill: 52°   Ceiling: 3700
Heat Index: 52°   Visibility: 15mi
Dew Point: 37°   Wind: 5mph
Humidity: 58%   Direction: 10°N
Pressure: 29.86"   Gusts: NA
Location:  45.6°N, 73.62°W
Report Text: CYUL 241800Z 01004KT 15SM BKN037 11/03 A2986 RMK SC7 SLP111
Loading
Personal Weather Stations






























Interactive Weather Map
Tropical Storm Tracking
New forecast layout! Learn more

10-Day Weather Forecast

Advertisements
Track Severe Weather on mobile